Terminal Aerodrome Forecast
Issued by NWS Burlington, VT

Home | Current Version | Previous Version | Text Only | Print | Product List | Glossary On
Versions: 1 2 3 4 5 6 7 8 9 10 11 12 13 14 15 16
000
FTUS41 KBTV 040357 AAB
TAFBTV
TAF AMD
KBTV 040357Z 0404/0424 18014G28KT 6SM -SHSN BR SCT020 OVC035
      TEMPO 0404/0406 2SM -SN BR OVC020
     FM040600 20015KT P6SM VCSH OVC035
     FM041300 27012G19KT P6SM SCT040 SCT250=

USA.gov is the U.S. government's official web portal to all federal, state and local government web resources and services.